sensor_id;sensor_type;location;lat;lon;timestamp;P1;durP1;ratioP1;P2;durP2;ratioP2
35223;SDS011;21367;51.930;8.112;2023-03-22T00:03:19;17.48;;;6.47;;
35223;SDS011;21367;51.930;8.112;2023-03-22T00:08:22;19.10;;;6.38;;
35223;SDS011;21367;51.930;8.112;2023-03-22T00:13:29;14.82;;;6.65;;
35223;SDS011;21367;51.930;8.112;2023-03-22T00:18:34;14.07;;;5.45;;
35223;SDS011;21367;51.930;8.112;2023-03-22T00:23:39;11.95;;;5.35;;
35223;SDS011;21367;51.930;8.112;2023-03-22T00:28:45;14.77;;;5.20;;
35223;SDS011;21367;51.930;8.112;2023-03-22T00:33:49;13.27;;;5.47;;
35223;SDS011;21367;51.930;8.112;2023-03-22T00:38:53;13.35;;;5.10;;
35223;SDS011;21367;51.930;8.112;2023-03-22T00:43:59;17.63;;;6.05;;
35223;SDS011;21367;51.930;8.112;2023-03-22T00:49:04;16.55;;;5.80;;
35223;SDS011;21367;51.930;8.112;2023-03-22T00:54:07;17.00;;;5.93;;
35223;SDS011;21367;51.930;8.112;2023-03-22T00:59:14;15.27;;;6.32;;
35223;SDS011;21367;51.930;8.112;2023-03-22T01:04:19;15.40;;;5.90;;
35223;SDS011;21367;51.930;8.112;2023-03-22T01:09:26;14.57;;;6.10;;
35223;SDS011;21367;51.930;8.112;2023-03-22T01:14:36;12.02;;;6.05;;
35223;SDS011;21367;51.930;8.112;2023-03-22T01:19:39;17.55;;;6.53;;
35223;SDS011;21367;51.930;8.112;2023-03-22T01:24:43;16.60;;;6.40;;
35223;SDS011;21367;51.930;8.112;2023-03-22T01:29:50;17.77;;;6.65;;
35223;SDS011;21367;51.930;8.112;2023-03-22T01:34:54;17.70;;;6.68;;
35223;SDS011;21367;51.930;8.112;2023-03-22T01:40:00;17.02;;;6.82;;
35223;SDS011;21367;51.930;8.112;2023-03-22T01:45:25;14.43;;;5.72;;
35223;SDS011;21367;51.930;8.112;2023-03-22T01:50:37;16.75;;;6.60;;
35223;SDS011;21367;51.930;8.112;2023-03-22T01:55:44;16.95;;;6.47;;
35223;SDS011;21367;51.930;8.112;2023-03-22T02:00:59;16.40;;;6.47;;
35223;SDS011;21367;51.930;8.112;2023-03-22T02:06:17;16.85;;;7.07;;
35223;SDS011;21367;51.930;8.112;2023-03-22T02:11:29;19.20;;;6.70;;
35223;SDS011;21367;51.930;8.112;2023-03-22T02:16:49;16.73;;;6.07;;
35223;SDS011;21367;51.930;8.112;2023-03-22T02:38:57;15.80;;;6.85;;
35223;SDS011;21367;51.930;8.112;2023-03-22T02:44:11;15.25;;;5.97;;
35223;SDS011;21367;51.930;8.112;2023-03-22T02:49:26;16.63;;;6.47;;
35223;SDS011;21367;51.930;8.112;2023-03-22T02:54:39;16.40;;;6.82;;
35223;SDS011;21367;51.930;8.112;2023-03-22T02:59:48;15.98;;;6.95;;
35223;SDS011;21367;51.930;8.112;2023-03-22T03:04:54;22.67;;;6.32;;
35223;SDS011;21367;51.930;8.112;2023-03-22T03:10:02;16.50;;;7.07;;
35223;SDS011;21367;51.930;8.112;2023-03-22T03:15:12;17.83;;;7.30;;
35223;SDS011;21367;51.930;8.112;2023-03-22T03:20:20;17.45;;;6.97;;
35223;SDS011;21367;51.930;8.112;2023-03-22T03:25:35;19.90;;;7.85;;
35223;SDS011;21367;51.930;8.112;2023-03-22T03:30:47;19.60;;;7.53;;
35223;SDS011;21367;51.930;8.112;2023-03-22T03:35:57;17.58;;;7.13;;
35223;SDS011;21367;51.930;8.112;2023-03-22T03:41:09;14.43;;;7.60;;
35223;SDS011;21367;51.930;8.112;2023-03-22T03:46:16;21.25;;;8.50;;
35223;SDS011;21367;51.930;8.112;2023-03-22T03:51:20;12.88;;;7.60;;
35223;SDS011;21367;51.930;8.112;2023-03-22T03:56:28;15.52;;;7.68;;
35223;SDS011;21367;51.930;8.112;2023-03-22T04:01:33;22.95;;;8.85;;
35223;SDS011;21367;51.930;8.112;2023-03-22T04:06:44;21.67;;;9.73;;
35223;SDS011;21367;51.930;8.112;2023-03-22T04:11:55;22.10;;;9.18;;
35223;SDS011;21367;51.930;8.112;2023-03-22T04:17:00;23.02;;;9.35;;
35223;SDS011;21367;51.930;8.112;2023-03-22T04:22:04;15.30;;;8.45;;
35223;SDS011;21367;51.930;8.112;2023-03-22T04:27:17;21.10;;;8.60;;
35223;SDS011;21367;51.930;8.112;2023-03-22T04:32:28;22.38;;;9.82;;
35223;SDS011;21367;51.930;8.112;2023-03-22T04:37:32;22.60;;;9.30;;
35223;SDS011;21367;51.930;8.112;2023-03-22T04:42:51;24.48;;;10.05;;
35223;SDS011;21367;51.930;8.112;2023-03-22T04:48:09;22.52;;;9.35;;
35223;SDS011;21367;51.930;8.112;2023-03-22T04:53:13;20.17;;;9.00;;
35223;SDS011;21367;51.930;8.112;2023-03-22T04:58:21;29.87;;;9.80;;
35223;SDS011;21367;51.930;8.112;2023-03-22T05:03:25;20.17;;;9.50;;
35223;SDS011;21367;51.930;8.112;2023-03-22T05:08:29;22.05;;;9.40;;
35223;SDS011;21367;51.930;8.112;2023-03-22T05:13:37;20.77;;;9.95;;
35223;SDS011;21367;51.930;8.112;2023-03-22T05:18:41;25.20;;;8.90;;
35223;SDS011;21367;51.930;8.112;2023-03-22T05:23:46;20.70;;;9.68;;
35223;SDS011;21367;51.930;8.112;2023-03-22T05:28:54;22.40;;;9.93;;
35223;SDS011;21367;51.930;8.112;2023-03-22T05:34:07;21.20;;;8.77;;
35223;SDS011;21367;51.930;8.112;2023-03-22T05:39:14;26.73;;;9.80;;
35223;SDS011;21367;51.930;8.112;2023-03-22T05:44:21;21.85;;;9.80;;
35223;SDS011;21367;51.930;8.112;2023-03-22T05:49:39;22.63;;;9.63;;
35223;SDS011;21367;51.930;8.112;2023-03-22T05:54:44;20.83;;;8.77;;
35223;SDS011;21367;51.930;8.112;2023-03-22T05:59:50;23.52;;;10.15;;
35223;SDS011;21367;51.930;8.112;2023-03-22T06:05:00;21.75;;;8.75;;
35223;SDS011;21367;51.930;8.112;2023-03-22T06:10:05;21.02;;;9.48;;
35223;SDS011;21367;51.930;8.112;2023-03-22T06:15:13;23.33;;;8.90;;
35223;SDS011;21367;51.930;8.112;2023-03-22T06:20:36;18.67;;;8.52;;
35223;SDS011;21367;51.930;8.112;2023-03-22T06:25:47;22.83;;;7.75;;
35223;SDS011;21367;51.930;8.112;2023-03-22T06:30:54;16.05;;;7.32;;
35223;SDS011;21367;51.930;8.112;2023-03-22T06:35:58;17.38;;;7.75;;
35223;SDS011;21367;51.930;8.112;2023-03-22T06:41:28;20.13;;;7.47;;
35223;SDS011;21367;51.930;8.112;2023-03-22T06:46:35;20.63;;;8.13;;
35223;SDS011;21367;51.930;8.112;2023-03-22T06:51:47;16.23;;;7.22;;
35223;SDS011;21367;51.930;8.112;2023-03-22T06:56:52;20.30;;;7.85;;
35223;SDS011;21367;51.930;8.112;2023-03-22T07:01:58;18.52;;;6.25;;
35223;SDS011;21367;51.930;8.112;2023-03-22T07:07:02;17.42;;;7.18;;
35223;SDS011;21367;51.930;8.112;2023-03-22T07:12:09;14.48;;;5.80;;
35223;SDS011;21367;51.930;8.112;2023-03-22T07:17:16;17.38;;;6.78;;
35223;SDS011;21367;51.930;8.112;2023-03-22T07:27:26;19.87;;;7.13;;
35223;SDS011;21367;51.930;8.112;2023-03-22T07:32:33;15.30;;;6.47;;
35223;SDS011;21367;51.930;8.112;2023-03-22T07:37:41;17.30;;;6.63;;
35223;SDS011;21367;51.930;8.112;2023-03-22T07:42:54;15.40;;;6.05;;
35223;SDS011;21367;51.930;8.112;2023-03-22T07:48:13;19.75;;;6.47;;
35223;SDS011;21367;51.930;8.112;2023-03-22T07:53:29;19.80;;;6.53;;
35223;SDS011;21367;51.930;8.112;2023-03-22T07:58:32;15.65;;;5.78;;
35223;SDS011;21367;51.930;8.112;2023-03-22T08:03:40;13.32;;;5.70;;
35223;SDS011;21367;51.930;8.112;2023-03-22T08:08:59;13.10;;;5.40;;
35223;SDS011;21367;51.930;8.112;2023-03-22T08:14:03;14.52;;;6.03;;
35223;SDS011;21367;51.930;8.112;2023-03-22T08:19:12;14.25;;;4.78;;
35223;SDS011;21367;51.930;8.112;2023-03-22T08:24:17;13.57;;;4.10;;
35223;SDS011;21367;51.930;8.112;2023-03-22T08:29:28;14.82;;;4.55;;
35223;SDS011;21367;51.930;8.112;2023-03-22T08:39:44;11.75;;;3.53;;
35223;SDS011;21367;51.930;8.112;2023-03-22T08:45:09;15.57;;;3.60;;
35223;SDS011;21367;51.930;8.112;2023-03-22T08:50:23;9.63;;;3.10;;
35223;SDS011;21367;51.930;8.112;2023-03-22T09:01:18;8.70;;;3.35;;
35223;SDS011;21367;51.930;8.112;2023-03-22T09:06:33;14.35;;;3.53;;
35223;SDS011;21367;51.930;8.112;2023-03-22T09:11:37;14.38;;;3.40;;
35223;SDS011;21367;51.930;8.112;2023-03-22T09:16:42;18.00;;;3.20;;
35223;SDS011;21367;51.930;8.112;2023-03-22T09:21:49;9.45;;;3.10;;
35223;SDS011;21367;51.930;8.112;2023-03-22T09:27:04;11.68;;;3.22;;
35223;SDS011;21367;51.930;8.112;2023-03-22T09:32:07;17.38;;;3.17;;
35223;SDS011;21367;51.930;8.112;2023-03-22T09:37:16;14.33;;;3.13;;
35223;SDS011;21367;51.930;8.112;2023-03-22T09:42:30;11.02;;;2.60;;
35223;SDS011;21367;51.930;8.112;2023-03-22T09:47:41;12.95;;;2.53;;
35223;SDS011;21367;51.930;8.112;2023-03-22T09:52:50;8.40;;;2.30;;
35223;SDS011;21367;51.930;8.112;2023-03-22T09:57:57;10.27;;;1.90;;
35223;SDS011;21367;51.930;8.112;2023-03-22T10:03:13;11.38;;;2.15;;
35223;SDS011;21367;51.930;8.112;2023-03-22T10:13:59;10.35;;;2.10;;
35223;SDS011;21367;51.930;8.112;2023-03-22T10:19:09;8.98;;;2.60;;
35223;SDS011;21367;51.930;8.112;2023-03-22T10:24:22;12.07;;;1.85;;
35223;SDS011;21367;51.930;8.112;2023-03-22T10:29:31;9.25;;;2.13;;
35223;SDS011;21367;51.930;8.112;2023-03-22T10:34:40;6.38;;;1.85;;
35223;SDS011;21367;51.930;8.112;2023-03-22T10:39:47;10.07;;;2.15;;
35223;SDS011;21367;51.930;8.112;2023-03-22T10:44:53;15.23;;;2.00;;
35223;SDS011;21367;51.930;8.112;2023-03-22T10:50:00;5.43;;;1.60;;
35223;SDS011;21367;51.930;8.112;2023-03-22T10:55:13;7.13;;;1.63;;
35223;SDS011;21367;51.930;8.112;2023-03-22T11:00:19;7.90;;;2.13;;
35223;SDS011;21367;51.930;8.112;2023-03-22T11:05:24;18.27;;;1.80;;
35223;SDS011;21367;51.930;8.112;2023-03-22T11:15:37;8.77;;;2.10;;
35223;SDS011;21367;51.930;8.112;2023-03-22T11:20:51;14.35;;;2.92;;
35223;SDS011;21367;51.930;8.112;2023-03-22T11:26:02;11.23;;;2.13;;
35223;SDS011;21367;51.930;8.112;2023-03-22T11:31:11;6.75;;;2.10;;
35223;SDS011;21367;51.930;8.112;2023-03-22T11:36:17;6.87;;;1.50;;
35223;SDS011;21367;51.930;8.112;2023-03-22T11:41:24;7.27;;;2.03;;
35223;SDS011;21367;51.930;8.112;2023-03-22T11:46:30;6.80;;;1.88;;
35223;SDS011;21367;51.930;8.112;2023-03-22T11:51:36;4.72;;;1.40;;
35223;SDS011;21367;51.930;8.112;2023-03-22T11:56:44;12.90;;;2.75;;
35223;SDS011;21367;51.930;8.112;2023-03-22T12:01:51;6.45;;;1.50;;
35223;SDS011;21367;51.930;8.112;2023-03-22T12:07:02;9.65;;;1.45;;
35223;SDS011;21367;51.930;8.112;2023-03-22T12:12:15;10.00;;;4.10;;
35223;SDS011;21367;51.930;8.112;2023-03-22T12:17:27;6.45;;;1.63;;
35223;SDS011;21367;51.930;8.112;2023-03-22T12:22:34;8.38;;;3.30;;
35223;SDS011;21367;51.930;8.112;2023-03-22T12:27:45;7.80;;;1.52;;
35223;SDS011;21367;51.930;8.112;2023-03-22T12:32:55;8.50;;;1.42;;
35223;SDS011;21367;51.930;8.112;2023-03-22T12:38:06;7.10;;;1.20;;
35223;SDS011;21367;51.930;8.112;2023-03-22T12:43:17;7.47;;;1.40;;
35223;SDS011;21367;51.930;8.112;2023-03-22T12:48:37;8.20;;;1.42;;
35223;SDS011;21367;51.930;8.112;2023-03-22T12:53:45;5.80;;;1.33;;
35223;SDS011;21367;51.930;8.112;2023-03-22T12:58:55;11.35;;;1.38;;
35223;SDS011;21367;51.930;8.112;2023-03-22T13:39:23;15.93;;;2.30;;
35223;SDS011;21367;51.930;8.112;2023-03-22T13:44:28;14.77;;;2.33;;
35223;SDS011;21367;51.930;8.112;2023-03-22T13:55:11;8.25;;;1.60;;
35223;SDS011;21367;51.930;8.112;2023-03-22T14:00:19;12.82;;;1.90;;
35223;SDS011;21367;51.930;8.112;2023-03-22T14:05:38;7.22;;;1.88;;
35223;SDS011;21367;51.930;8.112;2023-03-22T14:10:45;11.50;;;1.98;;
35223;SDS011;21367;51.930;8.112;2023-03-22T14:15:53;14.90;;;1.70;;
35223;SDS011;21367;51.930;8.112;2023-03-22T14:21:00;7.13;;;1.23;;
35223;SDS011;21367;51.930;8.112;2023-03-22T14:26:14;11.02;;;1.55;;
35223;SDS011;21367;51.930;8.112;2023-03-22T14:31:21;8.98;;;1.63;;
35223;SDS011;21367;51.930;8.112;2023-03-22T14:36:29;11.13;;;1.48;;
35223;SDS011;21367;51.930;8.112;2023-03-22T14:47:09;4.88;;;1.38;;
35223;SDS011;21367;51.930;8.112;2023-03-22T14:52:15;8.75;;;1.27;;
35223;SDS011;21367;51.930;8.112;2023-03-22T14:57:24;13.40;;;2.58;;
35223;SDS011;21367;51.930;8.112;2023-03-22T15:02:32;6.47;;;1.20;;
35223;SDS011;21367;51.930;8.112;2023-03-22T15:07:42;6.45;;;1.10;;
35223;SDS011;21367;51.930;8.112;2023-03-22T15:12:51;8.45;;;1.40;;
35223;SDS011;21367;51.930;8.112;2023-03-22T15:17:58;5.78;;;1.38;;
35223;SDS011;21367;51.930;8.112;2023-03-22T15:23:08;5.47;;;1.30;;
35223;SDS011;21367;51.930;8.112;2023-03-22T15:28:22;6.82;;;1.60;;
35223;SDS011;21367;51.930;8.112;2023-03-22T15:33:30;4.80;;;1.70;;
35223;SDS011;21367;51.930;8.112;2023-03-22T15:38:38;5.18;;;1.70;;
35223;SDS011;21367;51.930;8.112;2023-03-22T15:43:46;9.38;;;1.45;;
35223;SDS011;21367;51.930;8.112;2023-03-22T15:48:54;12.48;;;1.85;;
35223;SDS011;21367;51.930;8.112;2023-03-22T15:54:02;5.53;;;1.20;;
35223;SDS011;21367;51.930;8.112;2023-03-22T15:59:20;4.85;;;1.45;;
35223;SDS011;21367;51.930;8.112;2023-03-22T16:04:30;3.50;;;1.40;;
35223;SDS011;21367;51.930;8.112;2023-03-22T16:09:36;5.57;;;1.30;;
35223;SDS011;21367;51.930;8.112;2023-03-22T16:14:43;8.77;;;1.40;;
35223;SDS011;21367;51.930;8.112;2023-03-22T16:19:48;11.40;;;1.80;;
35223;SDS011;21367;51.930;8.112;2023-03-22T16:24:52;9.05;;;1.83;;
35223;SDS011;21367;51.930;8.112;2023-03-22T16:30:00;8.57;;;2.13;;
35223;SDS011;21367;51.930;8.112;2023-03-22T16:40:12;6.93;;;1.77;;
35223;SDS011;21367;51.930;8.112;2023-03-22T16:45:21;10.32;;;1.58;;
35223;SDS011;21367;51.930;8.112;2023-03-22T16:50:27;10.30;;;1.80;;
35223;SDS011;21367;51.930;8.112;2023-03-22T16:55:34;4.88;;;1.40;;
35223;SDS011;21367;51.930;8.112;2023-03-22T17:00:40;6.28;;;1.67;;
35223;SDS011;21367;51.930;8.112;2023-03-22T17:10:47;9.82;;;1.73;;
35223;SDS011;21367;51.930;8.112;2023-03-22T17:15:54;6.40;;;1.77;;
35223;SDS011;21367;51.930;8.112;2023-03-22T17:26:01;7.22;;;1.92;;
35223;SDS011;21367;51.930;8.112;2023-03-22T17:31:07;10.02;;;1.92;;
35223;SDS011;21367;51.930;8.112;2023-03-22T17:36:13;7.95;;;2.22;;
35223;SDS011;21367;51.930;8.112;2023-03-22T17:41:16;15.25;;;3.10;;
35223;SDS011;21367;51.930;8.112;2023-03-22T17:46:23;14.90;;;3.45;;
35223;SDS011;21367;51.930;8.112;2023-03-22T17:51:28;5.15;;;1.98;;
35223;SDS011;21367;51.930;8.112;2023-03-22T17:56:33;12.70;;;2.17;;
35223;SDS011;21367;51.930;8.112;2023-03-22T18:01:39;11.30;;;1.60;;
35223;SDS011;21367;51.930;8.112;2023-03-22T18:06:43;21.30;;;2.35;;
35223;SDS011;21367;51.930;8.112;2023-03-22T18:11:47;6.18;;;1.48;;
35223;SDS011;21367;51.930;8.112;2023-03-22T18:16:53;7.38;;;1.73;;
35223;SDS011;21367;51.930;8.112;2023-03-22T18:21:57;7.35;;;1.77;;
35223;SDS011;21367;51.930;8.112;2023-03-22T18:27:01;8.05;;;2.25;;
35223;SDS011;21367;51.930;8.112;2023-03-22T18:32:07;7.65;;;2.17;;
35223;SDS011;21367;51.930;8.112;2023-03-22T18:37:11;6.75;;;2.03;;
35223;SDS011;21367;51.930;8.112;2023-03-22T18:42:18;6.93;;;1.83;;
35223;SDS011;21367;51.930;8.112;2023-03-22T18:47:24;7.35;;;2.13;;
35223;SDS011;21367;51.930;8.112;2023-03-22T18:57:32;9.18;;;2.70;;
35223;SDS011;21367;51.930;8.112;2023-03-22T19:02:38;12.48;;;2.58;;
35223;SDS011;21367;51.930;8.112;2023-03-22T19:07:42;13.90;;;2.78;;
35223;SDS011;21367;51.930;8.112;2023-03-22T19:12:46;13.65;;;4.10;;
35223;SDS011;21367;51.930;8.112;2023-03-22T19:17:53;9.98;;;2.25;;
35223;SDS011;21367;51.930;8.112;2023-03-22T19:22:56;8.23;;;1.80;;
35223;SDS011;21367;51.930;8.112;2023-03-22T19:28:00;9.60;;;1.90;;
35223;SDS011;21367;51.930;8.112;2023-03-22T19:33:06;7.70;;;2.25;;
35223;SDS011;21367;51.930;8.112;2023-03-22T19:43:15;9.85;;;1.80;;
35223;SDS011;21367;51.930;8.112;2023-03-22T19:48:21;6.70;;;2.00;;
35223;SDS011;21367;51.930;8.112;2023-03-22T19:53:25;5.75;;;2.22;;
35223;SDS011;21367;51.930;8.112;2023-03-22T19:58:29;5.78;;;2.17;;
35223;SDS011;21367;51.930;8.112;2023-03-22T20:03:35;7.78;;;2.47;;
35223;SDS011;21367;51.930;8.112;2023-03-22T20:08:40;10.65;;;2.30;;
35223;SDS011;21367;51.930;8.112;2023-03-22T20:13:43;12.98;;;2.63;;
35223;SDS011;21367;51.930;8.112;2023-03-22T20:18:50;9.18;;;1.80;;
35223;SDS011;21367;51.930;8.112;2023-03-22T20:23:53;10.00;;;1.65;;
35223;SDS011;21367;51.930;8.112;2023-03-22T20:28:58;7.53;;;1.98;;
35223;SDS011;21367;51.930;8.112;2023-03-22T20:34:05;7.00;;;1.95;;
35223;SDS011;21367;51.930;8.112;2023-03-22T20:39:09;7.20;;;1.77;;
35223;SDS011;21367;51.930;8.112;2023-03-22T20:44:15;17.50;;;1.90;;
35223;SDS011;21367;51.930;8.112;2023-03-22T20:49:21;11.40;;;2.30;;
35223;SDS011;21367;51.930;8.112;2023-03-22T20:59:28;9.25;;;2.05;;
35223;SDS011;21367;51.930;8.112;2023-03-22T21:04:36;8.73;;;1.95;;
35223;SDS011;21367;51.930;8.112;2023-03-22T21:09:40;9.73;;;2.60;;
35223;SDS011;21367;51.930;8.112;2023-03-22T21:14:44;17.13;;;2.75;;
35223;SDS011;21367;51.930;8.112;2023-03-22T21:19:50;10.30;;;2.20;;
35223;SDS011;21367;51.930;8.112;2023-03-22T21:29:57;7.82;;;2.30;;
35223;SDS011;21367;51.930;8.112;2023-03-22T21:35:05;7.80;;;2.30;;
35223;SDS011;21367;51.930;8.112;2023-03-22T21:40:10;13.18;;;2.42;;
35223;SDS011;21367;51.930;8.112;2023-03-22T21:45:14;13.48;;;2.88;;
35223;SDS011;21367;51.930;8.112;2023-03-22T21:50:21;8.82;;;2.50;;
35223;SDS011;21367;51.930;8.112;2023-03-22T21:55:25;14.57;;;2.67;;
35223;SDS011;21367;51.930;8.112;2023-03-22T22:05:37;7.85;;;2.60;;
35223;SDS011;21367;51.930;8.112;2023-03-22T22:10:51;6.63;;;2.20;;
35223;SDS011;21367;51.930;8.112;2023-03-22T22:15:56;11.10;;;2.20;;
35223;SDS011;21367;51.930;8.112;2023-03-22T22:21:05;6.80;;;1.95;;
35223;SDS011;21367;51.930;8.112;2023-03-22T22:26:10;10.85;;;2.28;;
35223;SDS011;21367;51.930;8.112;2023-03-22T22:31:16;5.15;;;2.10;;
35223;SDS011;21367;51.930;8.112;2023-03-22T22:36:26;8.30;;;2.33;;
35223;SDS011;21367;51.930;8.112;2023-03-22T22:41:31;11.73;;;2.22;;
35223;SDS011;21367;51.930;8.112;2023-03-22T22:46:36;12.07;;;3.17;;
35223;SDS011;21367;51.930;8.112;2023-03-22T22:51:43;7.97;;;2.65;;
35223;SDS011;21367;51.930;8.112;2023-03-22T22:56:46;10.30;;;3.10;;
35223;SDS011;21367;51.930;8.112;2023-03-22T23:01:50;8.85;;;4.00;;
35223;SDS011;21367;51.930;8.112;2023-03-22T23:06:57;11.27;;;2.95;;
35223;SDS011;21367;51.930;8.112;2023-03-22T23:12:01;12.10;;;3.40;;
35223;SDS011;21367;51.930;8.112;2023-03-22T23:17:05;14.38;;;3.63;;
35223;SDS011;21367;51.930;8.112;2023-03-22T23:22:12;14.05;;;3.47;;
35223;SDS011;21367;51.930;8.112;2023-03-22T23:27:16;11.60;;;3.30;;
35223;SDS011;21367;51.930;8.112;2023-03-22T23:32:20;11.07;;;3.53;;
35223;SDS011;21367;51.930;8.112;2023-03-22T23:37:26;10.48;;;3.70;;
35223;SDS011;21367;51.930;8.112;2023-03-22T23:42:31;9.88;;;3.75;;
35223;SDS011;21367;51.930;8.112;2023-03-22T23:47:35;11.65;;;3.33;;
35223;SDS011;21367;51.930;8.112;2023-03-22T23:52:41;8.80;;;3.85;;
35223;SDS011;21367;51.930;8.112;2023-03-22T23:57:45;9.77;;;4.10;;
